sensor_id;sensor_type;location;lat;lon;timestamp;P1;durP1;ratioP1;P2;durP2;ratioP2
65471;SDS011;52068;50.710;14.492;2023-08-21T00:01:01;4.90;;;3.92;;
65471;SDS011;52068;50.710;14.492;2023-08-21T00:03:27;4.60;;;4.10;;
65471;SDS011;52068;50.710;14.492;2023-08-21T00:05:52;4.15;;;3.72;;
65471;SDS011;52068;50.710;14.492;2023-08-21T00:08:17;5.18;;;4.18;;
65471;SDS011;52068;50.710;14.492;2023-08-21T00:10:43;4.85;;;4.35;;
65471;SDS011;52068;50.710;14.492;2023-08-21T00:13:08;7.22;;;4.00;;
65471;SDS011;52068;50.710;14.492;2023-08-21T00:15:34;4.25;;;3.50;;
65471;SDS011;52068;50.710;14.492;2023-08-21T00:18:00;5.05;;;3.95;;
65471;SDS011;52068;50.710;14.492;2023-08-21T00:20:26;6.38;;;4.05;;
65471;SDS011;52068;50.710;14.492;2023-08-21T00:22:51;4.03;;;3.35;;
65471;SDS011;52068;50.710;14.492;2023-08-21T00:25:17;5.88;;;4.07;;
65471;SDS011;52068;50.710;14.492;2023-08-21T00:27:42;5.28;;;3.72;;
65471;SDS011;52068;50.710;14.492;2023-08-21T00:30:07;4.03;;;3.63;;
65471;SDS011;52068;50.710;14.492;2023-08-21T00:32:33;6.95;;;4.05;;
65471;SDS011;52068;50.710;14.492;2023-08-21T00:34:59;5.55;;;3.78;;
65471;SDS011;52068;50.710;14.492;2023-08-21T00:37:24;6.28;;;3.70;;
65471;SDS011;52068;50.710;14.492;2023-08-21T00:39:49;5.43;;;3.80;;
65471;SDS011;52068;50.710;14.492;2023-08-21T00:42:15;4.00;;;3.55;;
65471;SDS011;52068;50.710;14.492;2023-08-21T00:44:40;5.32;;;3.70;;
65471;SDS011;52068;50.710;14.492;2023-08-21T00:47:06;4.32;;;3.92;;
65471;SDS011;52068;50.710;14.492;2023-08-21T00:49:31;8.93;;;3.60;;
65471;SDS011;52068;50.710;14.492;2023-08-21T00:51:57;4.80;;;3.80;;
65471;SDS011;52068;50.710;14.492;2023-08-21T00:54:24;4.90;;;3.60;;
65471;SDS011;52068;50.710;14.492;2023-08-21T00:56:50;4.10;;;3.65;;
65471;SDS011;52068;50.710;14.492;2023-08-21T00:59:17;5.15;;;3.70;;
65471;SDS011;52068;50.710;14.492;2023-08-21T01:01:44;5.75;;;3.92;;
65471;SDS011;52068;50.710;14.492;2023-08-21T01:04:10;4.28;;;3.40;;
65471;SDS011;52068;50.710;14.492;2023-08-21T01:06:35;5.65;;;3.45;;
65471;SDS011;52068;50.710;14.492;2023-08-21T01:09:08;4.22;;;3.78;;
65471;SDS011;52068;50.710;14.492;2023-08-21T01:16:58;3.80;;;3.35;;
65471;SDS011;52068;50.710;14.492;2023-08-21T01:19:35;3.78;;;3.30;;
65471;SDS011;52068;50.710;14.492;2023-08-21T01:22:03;4.05;;;3.63;;
65471;SDS011;52068;50.710;14.492;2023-08-21T01:24:29;4.47;;;3.70;;
65471;SDS011;52068;50.710;14.492;2023-08-21T01:26:54;5.40;;;3.80;;
65471;SDS011;52068;50.710;14.492;2023-08-21T01:29:19;4.45;;;3.38;;
65471;SDS011;52068;50.710;14.492;2023-08-21T01:31:47;5.43;;;3.38;;
65471;SDS011;52068;50.710;14.492;2023-08-21T01:34:19;4.30;;;3.47;;
65471;SDS011;52068;50.710;14.492;2023-08-21T01:36:46;5.25;;;3.47;;
65471;SDS011;52068;50.710;14.492;2023-08-21T01:39:12;6.70;;;3.85;;
65471;SDS011;52068;50.710;14.492;2023-08-21T01:41:38;3.88;;;3.35;;
65471;SDS011;52068;50.710;14.492;2023-08-21T01:44:03;4.53;;;3.30;;
65471;SDS011;52068;50.710;14.492;2023-08-21T01:46:28;4.00;;;3.28;;
65471;SDS011;52068;50.710;14.492;2023-08-21T01:48:54;8.18;;;3.55;;
65471;SDS011;52068;50.710;14.492;2023-08-21T01:51:19;5.00;;;3.55;;
65471;SDS011;52068;50.710;14.492;2023-08-21T01:53:45;3.95;;;3.30;;
65471;SDS011;52068;50.710;14.492;2023-08-21T01:56:11;5.63;;;3.42;;
65471;SDS011;52068;50.710;14.492;2023-08-21T01:58:36;4.15;;;3.13;;
65471;SDS011;52068;50.710;14.492;2023-08-21T02:01:02;4.93;;;3.17;;
65471;SDS011;52068;50.710;14.492;2023-08-21T02:03:28;3.92;;;3.20;;
65471;SDS011;52068;50.710;14.492;2023-08-21T02:05:55;4.75;;;3.22;;
65471;SDS011;52068;50.710;14.492;2023-08-21T02:08:26;5.07;;;3.05;;
65471;SDS011;52068;50.710;14.492;2023-08-21T02:10:56;6.65;;;3.45;;
65471;SDS011;52068;50.710;14.492;2023-08-21T02:13:22;3.67;;;3.35;;
65471;SDS011;52068;50.710;14.492;2023-08-21T02:15:47;3.72;;;3.42;;
65471;SDS011;52068;50.710;14.492;2023-08-21T02:18:12;3.17;;;2.88;;
65471;SDS011;52068;50.710;14.492;2023-08-21T02:20:38;5.00;;;3.40;;
65471;SDS011;52068;50.710;14.492;2023-08-21T02:23:03;4.18;;;3.50;;
65471;SDS011;52068;50.710;14.492;2023-08-21T02:25:29;4.63;;;3.38;;
65471;SDS011;52068;50.710;14.492;2023-08-21T02:27:56;4.00;;;3.47;;
65471;SDS011;52068;50.710;14.492;2023-08-21T02:30:21;5.75;;;3.65;;
65471;SDS011;52068;50.710;14.492;2023-08-21T02:32:50;5.30;;;3.38;;
65471;SDS011;52068;50.710;14.492;2023-08-21T02:35:16;4.72;;;3.20;;
65471;SDS011;52068;50.710;14.492;2023-08-21T02:37:41;4.88;;;3.22;;
65471;SDS011;52068;50.710;14.492;2023-08-21T02:40:07;5.25;;;3.35;;
65471;SDS011;52068;50.710;14.492;2023-08-21T02:42:33;3.65;;;3.35;;
65471;SDS011;52068;50.710;14.492;2023-08-21T02:44:59;6.35;;;3.20;;
65471;SDS011;52068;50.710;14.492;2023-08-21T02:47:24;4.63;;;3.42;;
65471;SDS011;52068;50.710;14.492;2023-08-21T02:49:49;6.20;;;3.55;;
65471;SDS011;52068;50.710;14.492;2023-08-21T02:52:15;4.22;;;2.83;;
65471;SDS011;52068;50.710;14.492;2023-08-21T02:54:40;3.78;;;3.15;;
65471;SDS011;52068;50.710;14.492;2023-08-21T02:57:06;3.60;;;3.30;;
65471;SDS011;52068;50.710;14.492;2023-08-21T02:59:31;3.65;;;3.33;;
65471;SDS011;52068;50.710;14.492;2023-08-21T03:01:56;5.28;;;3.53;;
65471;SDS011;52068;50.710;14.492;2023-08-21T03:04:22;5.97;;;3.25;;
65471;SDS011;52068;50.710;14.492;2023-08-21T03:06:48;4.82;;;3.58;;
65471;SDS011;52068;50.710;14.492;2023-08-21T03:09:13;4.85;;;3.10;;
65471;SDS011;52068;50.710;14.492;2023-08-21T03:11:39;4.60;;;3.50;;
65471;SDS011;52068;50.710;14.492;2023-08-21T03:14:04;3.60;;;3.13;;
65471;SDS011;52068;50.710;14.492;2023-08-21T03:16:29;6.05;;;3.22;;
65471;SDS011;52068;50.710;14.492;2023-08-21T03:18:56;5.45;;;3.30;;
65471;SDS011;52068;50.710;14.492;2023-08-21T03:21:22;3.95;;;3.55;;
65471;SDS011;52068;50.710;14.492;2023-08-21T03:23:54;5.85;;;3.60;;
65471;SDS011;52068;50.710;14.492;2023-08-21T03:26:21;6.10;;;3.55;;
65471;SDS011;52068;50.710;14.492;2023-08-21T03:28:47;9.13;;;3.10;;
65471;SDS011;52068;50.710;14.492;2023-08-21T03:31:12;5.03;;;3.25;;
65471;SDS011;52068;50.710;14.492;2023-08-21T03:33:38;4.00;;;3.30;;
65471;SDS011;52068;50.710;14.492;2023-08-21T03:36:03;8.60;;;3.55;;
65471;SDS011;52068;50.710;14.492;2023-08-21T03:38:29;4.65;;;3.65;;
65471;SDS011;52068;50.710;14.492;2023-08-21T03:40:54;4.25;;;3.40;;
65471;SDS011;52068;50.710;14.492;2023-08-21T03:43:20;4.00;;;3.22;;
65471;SDS011;52068;50.710;14.492;2023-08-21T03:45:45;6.80;;;3.70;;
65471;SDS011;52068;50.710;14.492;2023-08-21T03:48:10;3.47;;;3.17;;
65471;SDS011;52068;50.710;14.492;2023-08-21T03:50:36;4.32;;;3.53;;
65471;SDS011;52068;50.710;14.492;2023-08-21T03:53:01;7.25;;;3.42;;
65471;SDS011;52068;50.710;14.492;2023-08-21T03:55:27;5.72;;;3.53;;
65471;SDS011;52068;50.710;14.492;2023-08-21T03:57:52;4.95;;;3.08;;
65471;SDS011;52068;50.710;14.492;2023-08-21T04:00:17;4.88;;;3.53;;
65471;SDS011;52068;50.710;14.492;2023-08-21T04:02:43;4.50;;;3.40;;
65471;SDS011;52068;50.710;14.492;2023-08-21T04:05:08;6.93;;;3.40;;
65471;SDS011;52068;50.710;14.492;2023-08-21T04:07:35;5.15;;;3.50;;
65471;SDS011;52068;50.710;14.492;2023-08-21T04:10:01;6.10;;;3.28;;
65471;SDS011;52068;50.710;14.492;2023-08-21T04:12:26;4.55;;;3.42;;
65471;SDS011;52068;50.710;14.492;2023-08-21T04:14:51;4.72;;;3.40;;
65471;SDS011;52068;50.710;14.492;2023-08-21T04:17:23;7.55;;;3.38;;
65471;SDS011;52068;50.710;14.492;2023-08-21T04:19:51;3.83;;;3.40;;
65471;SDS011;52068;50.710;14.492;2023-08-21T04:22:17;5.28;;;3.50;;
65471;SDS011;52068;50.710;14.492;2023-08-21T04:24:42;6.38;;;3.47;;
65471;SDS011;52068;50.710;14.492;2023-08-21T04:27:08;6.00;;;3.35;;
65471;SDS011;52068;50.710;14.492;2023-08-21T04:29:37;5.45;;;3.53;;
65471;SDS011;52068;50.710;14.492;2023-08-21T04:32:04;10.68;;;3.30;;
65471;SDS011;52068;50.710;14.492;2023-08-21T04:34:29;5.28;;;3.85;;
65471;SDS011;52068;50.710;14.492;2023-08-21T04:36:56;4.65;;;3.33;;
65471;SDS011;52068;50.710;14.492;2023-08-21T04:39:22;4.80;;;3.63;;
65471;SDS011;52068;50.710;14.492;2023-08-21T04:41:47;5.28;;;3.45;;
65471;SDS011;52068;50.710;14.492;2023-08-21T04:44:12;4.53;;;3.65;;
65471;SDS011;52068;50.710;14.492;2023-08-21T04:46:38;7.43;;;3.45;;
65471;SDS011;52068;50.710;14.492;2023-08-21T04:49:03;5.40;;;3.67;;
65471;SDS011;52068;50.710;14.492;2023-08-21T04:51:28;4.95;;;3.40;;
65471;SDS011;52068;50.710;14.492;2023-08-21T04:53:54;4.60;;;3.55;;
65471;SDS011;52068;50.710;14.492;2023-08-21T04:56:19;3.40;;;2.85;;
65471;SDS011;52068;50.710;14.492;2023-08-21T04:58:45;3.65;;;3.33;;
65471;SDS011;52068;50.710;14.492;2023-08-21T05:01:10;4.68;;;3.70;;
65471;SDS011;52068;50.710;14.492;2023-08-21T05:03:35;6.68;;;3.25;;
65471;SDS011;52068;50.710;14.492;2023-08-21T05:06:01;3.92;;;3.22;;
65471;SDS011;52068;50.710;14.492;2023-08-21T05:08:26;11.30;;;3.55;;
65471;SDS011;52068;50.710;14.492;2023-08-21T05:10:55;11.20;;;3.40;;
65471;SDS011;52068;50.710;14.492;2023-08-21T05:13:24;6.57;;;4.43;;
65471;SDS011;52068;50.710;14.492;2023-08-21T05:15:56;7.53;;;3.58;;
65471;SDS011;52068;50.710;14.492;2023-08-21T05:18:23;4.97;;;3.30;;
65471;SDS011;52068;50.710;14.492;2023-08-21T05:20:49;8.18;;;4.22;;
65471;SDS011;52068;50.710;14.492;2023-08-21T05:23:15;5.03;;;3.40;;
65471;SDS011;52068;50.710;14.492;2023-08-21T05:25:42;6.18;;;3.33;;
65471;SDS011;52068;50.710;14.492;2023-08-21T05:28:08;4.85;;;3.85;;
65471;SDS011;52068;50.710;14.492;2023-08-21T05:30:35;7.40;;;3.78;;
65471;SDS011;52068;50.710;14.492;2023-08-21T05:33:00;9.63;;;3.50;;
65471;SDS011;52068;50.710;14.492;2023-08-21T05:35:26;3.92;;;3.35;;
65471;SDS011;52068;50.710;14.492;2023-08-21T05:37:51;7.20;;;3.70;;
65471;SDS011;52068;50.710;14.492;2023-08-21T05:40:17;15.57;;;4.18;;
65471;SDS011;52068;50.710;14.492;2023-08-21T05:42:42;6.90;;;4.03;;
65471;SDS011;52068;50.710;14.492;2023-08-21T05:45:07;10.40;;;4.25;;
65471;SDS011;52068;50.710;14.492;2023-08-21T05:47:33;8.90;;;4.13;;
65471;SDS011;52068;50.710;14.492;2023-08-21T05:49:59;4.57;;;3.70;;
65471;SDS011;52068;50.710;14.492;2023-08-21T05:52:24;5.78;;;3.53;;
65471;SDS011;52068;50.710;14.492;2023-08-21T05:54:50;12.02;;;3.90;;
65471;SDS011;52068;50.710;14.492;2023-08-21T05:57:15;9.07;;;4.00;;
65471;SDS011;52068;50.710;14.492;2023-08-21T05:59:46;10.02;;;4.13;;
65471;SDS011;52068;50.710;14.492;2023-08-21T06:02:15;6.82;;;4.07;;
65471;SDS011;52068;50.710;14.492;2023-08-21T06:04:41;5.50;;;4.15;;
65471;SDS011;52068;50.710;14.492;2023-08-21T06:07:07;5.63;;;3.83;;
65471;SDS011;52068;50.710;14.492;2023-08-21T06:09:34;4.28;;;3.80;;
65471;SDS011;52068;50.710;14.492;2023-08-21T06:12:00;6.57;;;4.28;;
65471;SDS011;52068;50.710;14.492;2023-08-21T06:14:26;8.77;;;4.15;;
65471;SDS011;52068;50.710;14.492;2023-08-21T06:16:59;8.65;;;4.00;;
65471;SDS011;52068;50.710;14.492;2023-08-21T06:19:26;5.75;;;3.90;;
65471;SDS011;52068;50.710;14.492;2023-08-21T06:21:51;9.25;;;4.30;;
65471;SDS011;52068;50.710;14.492;2023-08-21T06:24:17;4.80;;;4.10;;
65471;SDS011;52068;50.710;14.492;2023-08-21T06:26:42;6.05;;;4.38;;
65471;SDS011;52068;50.710;14.492;2023-08-21T06:29:07;8.63;;;4.03;;
65471;SDS011;52068;50.710;14.492;2023-08-21T06:31:33;7.03;;;4.05;;
65471;SDS011;52068;50.710;14.492;2023-08-21T06:33:58;6.15;;;4.22;;
65471;SDS011;52068;50.710;14.492;2023-08-21T06:36:24;7.53;;;4.20;;
65471;SDS011;52068;50.710;14.492;2023-08-21T06:38:49;6.53;;;4.05;;
65471;SDS011;52068;50.710;14.492;2023-08-21T06:41:14;6.60;;;4.30;;
65471;SDS011;52068;50.710;14.492;2023-08-21T06:43:40;10.27;;;4.75;;
65471;SDS011;52068;50.710;14.492;2023-08-21T06:46:06;6.25;;;4.15;;
65471;SDS011;52068;50.710;14.492;2023-08-21T06:48:32;5.72;;;4.05;;
65471;SDS011;52068;50.710;14.492;2023-08-21T06:50:57;5.95;;;4.32;;
65471;SDS011;52068;50.710;14.492;2023-08-21T06:53:22;7.18;;;4.18;;
65471;SDS011;52068;50.710;14.492;2023-08-21T06:55:48;6.13;;;4.28;;
65471;SDS011;52068;50.710;14.492;2023-08-21T06:58:13;4.30;;;3.85;;
65471;SDS011;52068;50.710;14.492;2023-08-21T07:00:38;9.00;;;4.47;;
65471;SDS011;52068;50.710;14.492;2023-08-21T07:03:04;5.00;;;4.22;;
65471;SDS011;52068;50.710;14.492;2023-08-21T07:05:32;7.07;;;4.47;;
65471;SDS011;52068;50.710;14.492;2023-08-21T07:07:58;5.57;;;4.25;;
65471;SDS011;52068;50.710;14.492;2023-08-21T07:10:23;6.95;;;4.13;;
65471;SDS011;52068;50.710;14.492;2023-08-21T07:12:49;5.00;;;3.92;;
65471;SDS011;52068;50.710;14.492;2023-08-21T07:15:14;4.88;;;4.20;;
65471;SDS011;52068;50.710;14.492;2023-08-21T07:17:40;8.80;;;4.25;;
65471;SDS011;52068;50.710;14.492;2023-08-21T07:20:06;5.82;;;4.25;;
65471;SDS011;52068;50.710;14.492;2023-08-21T07:22:32;5.53;;;4.43;;
65471;SDS011;52068;50.710;14.492;2023-08-21T07:24:58;4.72;;;4.22;;
65471;SDS011;52068;50.710;14.492;2023-08-21T07:27:25;7.28;;;4.18;;
65471;SDS011;52068;50.710;14.492;2023-08-21T07:29:51;5.63;;;4.00;;
65471;SDS011;52068;50.710;14.492;2023-08-21T07:32:16;4.55;;;4.03;;
65471;SDS011;52068;50.710;14.492;2023-08-21T07:34:42;4.45;;;4.00;;
65471;SDS011;52068;50.710;14.492;2023-08-21T07:37:07;4.90;;;4.07;;
65471;SDS011;52068;50.710;14.492;2023-08-21T07:39:34;7.35;;;4.10;;
65471;SDS011;52068;50.710;14.492;2023-08-21T07:41:59;8.75;;;4.25;;
65471;SDS011;52068;50.710;14.492;2023-08-21T07:44:25;9.15;;;4.53;;
65471;SDS011;52068;50.710;14.492;2023-08-21T07:46:51;5.35;;;4.32;;
65471;SDS011;52068;50.710;14.492;2023-08-21T07:49:16;4.93;;;4.15;;
65471;SDS011;52068;50.710;14.492;2023-08-21T07:51:41;4.55;;;3.85;;
65471;SDS011;52068;50.710;14.492;2023-08-21T07:54:07;8.70;;;4.22;;
65471;SDS011;52068;50.710;14.492;2023-08-21T07:56:32;6.07;;;4.35;;
65471;SDS011;52068;50.710;14.492;2023-08-21T07:58:58;4.80;;;4.32;;
65471;SDS011;52068;50.710;14.492;2023-08-21T08:01:23;6.32;;;4.53;;
65471;SDS011;52068;50.710;14.492;2023-08-21T08:03:48;6.20;;;4.40;;
65471;SDS011;52068;50.710;14.492;2023-08-21T08:06:14;6.93;;;4.38;;
65471;SDS011;52068;50.710;14.492;2023-08-21T08:08:40;6.28;;;4.32;;
65471;SDS011;52068;50.710;14.492;2023-08-21T08:11:05;5.75;;;4.68;;
65471;SDS011;52068;50.710;14.492;2023-08-21T08:13:31;5.70;;;4.57;;
65471;SDS011;52068;50.710;14.492;2023-08-21T08:15:56;7.35;;;4.38;;
65471;SDS011;52068;50.710;14.492;2023-08-21T08:18:22;6.07;;;4.75;;
65471;SDS011;52068;50.710;14.492;2023-08-21T08:20:47;6.85;;;5.20;;
65471;SDS011;52068;50.710;14.492;2023-08-21T08:23:13;5.18;;;4.68;;
65471;SDS011;52068;50.710;14.492;2023-08-21T08:25:38;6.88;;;4.43;;
65471;SDS011;52068;50.710;14.492;2023-08-21T08:28:03;7.18;;;5.00;;
65471;SDS011;52068;50.710;14.492;2023-08-21T08:30:29;4.70;;;4.30;;
65471;SDS011;52068;50.710;14.492;2023-08-21T08:32:54;5.50;;;4.93;;
65471;SDS011;52068;50.710;14.492;2023-08-21T08:35:20;5.47;;;4.43;;
65471;SDS011;52068;50.710;14.492;2023-08-21T08:37:45;5.72;;;4.50;;
65471;SDS011;52068;50.710;14.492;2023-08-21T08:40:11;6.70;;;5.00;;
65471;SDS011;52068;50.710;14.492;2023-08-21T08:42:36;5.65;;;4.70;;
65471;SDS011;52068;50.710;14.492;2023-08-21T08:45:02;5.80;;;5.10;;
65471;SDS011;52068;50.710;14.492;2023-08-21T08:47:30;5.20;;;4.70;;
65471;SDS011;52068;50.710;14.492;2023-08-21T08:49:57;6.75;;;5.30;;
65471;SDS011;52068;50.710;14.492;2023-08-21T08:52:25;7.28;;;5.55;;
65471;SDS011;52068;50.710;14.492;2023-08-21T08:54:52;6.95;;;4.68;;
65471;SDS011;52068;50.710;14.492;2023-08-21T08:57:22;5.22;;;4.72;;
65471;SDS011;52068;50.710;14.492;2023-08-21T08:59:48;5.70;;;4.50;;
65471;SDS011;52068;50.710;14.492;2023-08-21T09:02:13;5.95;;;5.25;;
65471;SDS011;52068;50.710;14.492;2023-08-21T09:04:38;5.78;;;5.20;;
65471;SDS011;52068;50.710;14.492;2023-08-21T09:07:10;6.63;;;5.38;;
65471;SDS011;52068;50.710;14.492;2023-08-21T09:09:40;5.47;;;4.97;;
65471;SDS011;52068;50.710;14.492;2023-08-21T09:12:09;6.03;;;5.22;;
65471;SDS011;52068;50.710;14.492;2023-08-21T09:14:37;8.65;;;5.25;;
65471;SDS011;52068;50.710;14.492;2023-08-21T09:17:03;7.15;;;5.22;;
65471;SDS011;52068;50.710;14.492;2023-08-21T09:19:29;7.65;;;4.88;;
65471;SDS011;52068;50.710;14.492;2023-08-21T09:21:54;6.35;;;5.13;;
65471;SDS011;52068;50.710;14.492;2023-08-21T09:24:20;6.90;;;5.63;;
65471;SDS011;52068;50.710;14.492;2023-08-21T09:26:45;6.68;;;5.15;;
65471;SDS011;52068;50.710;14.492;2023-08-21T09:29:10;5.30;;;4.80;;
65471;SDS011;52068;50.710;14.492;2023-08-21T09:31:36;7.07;;;5.50;;
65471;SDS011;52068;50.710;14.492;2023-08-21T09:34:02;5.57;;;5.00;;
65471;SDS011;52068;50.710;14.492;2023-08-21T09:36:31;6.88;;;5.90;;
65471;SDS011;52068;50.710;14.492;2023-08-21T09:38:57;5.32;;;4.82;;
65471;SDS011;52068;50.710;14.492;2023-08-21T09:41:23;5.90;;;5.25;;
65471;SDS011;52068;50.710;14.492;2023-08-21T09:43:49;8.20;;;5.15;;
65471;SDS011;52068;50.710;14.492;2023-08-21T09:46:15;8.68;;;5.93;;
65471;SDS011;52068;50.710;14.492;2023-08-21T09:48:41;8.23;;;5.90;;
65471;SDS011;52068;50.710;14.492;2023-08-21T09:51:09;6.28;;;5.68;;
65471;SDS011;52068;50.710;14.492;2023-08-21T09:53:34;6.30;;;5.45;;
65471;SDS011;52068;50.710;14.492;2023-08-21T09:56:00;7.20;;;5.72;;
65471;SDS011;52068;50.710;14.492;2023-08-21T09:58:28;6.78;;;5.35;;
65471;SDS011;52068;50.710;14.492;2023-08-21T10:00:56;6.50;;;5.90;;
65471;SDS011;52068;50.710;14.492;2023-08-21T10:03:23;7.20;;;5.80;;
65471;SDS011;52068;50.710;14.492;2023-08-21T10:05:49;7.55;;;6.28;;
65471;SDS011;52068;50.710;14.492;2023-08-21T10:08:16;6.22;;;5.50;;
65471;SDS011;52068;50.710;14.492;2023-08-21T10:10:46;6.53;;;5.20;;
65471;SDS011;52068;50.710;14.492;2023-08-21T10:13:11;7.00;;;5.93;;
65471;SDS011;52068;50.710;14.492;2023-08-21T10:15:37;6.72;;;6.03;;
65471;SDS011;52068;50.710;14.492;2023-08-21T10:20:45;7.03;;;5.72;;
65471;SDS011;52068;50.710;14.492;2023-08-21T10:23:12;6.57;;;5.95;;
65471;SDS011;52068;50.710;14.492;2023-08-21T10:25:49;6.15;;;5.55;;
65471;SDS011;52068;50.710;14.492;2023-08-21T10:28:23;8.75;;;5.97;;
65471;SDS011;52068;50.710;14.492;2023-08-21T10:30:48;7.30;;;6.50;;
65471;SDS011;52068;50.710;14.492;2023-08-21T10:33:14;7.22;;;5.82;;
65471;SDS011;52068;50.710;14.492;2023-08-21T10:35:39;7.07;;;5.82;;
65471;SDS011;52068;50.710;14.492;2023-08-21T10:38:08;7.03;;;5.95;;
65471;SDS011;52068;50.710;14.492;2023-08-21T10:40:36;6.60;;;6.00;;
65471;SDS011;52068;50.710;14.492;2023-08-21T10:43:02;7.35;;;5.70;;
65471;SDS011;52068;50.710;14.492;2023-08-21T10:45:28;6.35;;;5.60;;
65471;SDS011;52068;50.710;14.492;2023-08-21T10:47:58;7.95;;;5.75;;
65471;SDS011;52068;50.710;14.492;2023-08-21T10:50:23;7.20;;;6.10;;
65471;SDS011;52068;50.710;14.492;2023-08-21T10:52:50;7.13;;;6.18;;
65471;SDS011;52068;50.710;14.492;2023-08-21T10:55:19;7.20;;;5.72;;
65471;SDS011;52068;50.710;14.492;2023-08-21T10:57:48;7.72;;;6.18;;
65471;SDS011;52068;50.710;14.492;2023-08-21T11:00:18;7.07;;;6.35;;
65471;SDS011;52068;50.710;14.492;2023-08-21T11:02:46;7.03;;;6.32;;
65471;SDS011;52068;50.710;14.492;2023-08-21T11:05:14;6.97;;;5.88;;
65471;SDS011;52068;50.710;14.492;2023-08-21T11:07:44;7.30;;;6.07;;
65471;SDS011;52068;50.710;14.492;2023-08-21T11:10:13;7.13;;;5.88;;
65471;SDS011;52068;50.710;14.492;2023-08-21T11:15:15;7.50;;;5.50;;
65471;SDS011;52068;50.710;14.492;2023-08-21T11:17:41;6.47;;;5.88;;
65471;SDS011;52068;50.710;14.492;2023-08-21T11:20:07;8.30;;;6.30;;
65471;SDS011;52068;50.710;14.492;2023-08-21T11:22:33;6.20;;;5.60;;
65471;SDS011;52068;50.710;14.492;2023-08-21T11:24:59;6.75;;;6.15;;
65471;SDS011;52068;50.710;14.492;2023-08-21T11:27:24;6.53;;;5.43;;
65471;SDS011;52068;50.710;14.492;2023-08-21T11:29:50;7.40;;;5.43;;
65471;SDS011;52068;50.710;14.492;2023-08-21T11:32:17;7.50;;;5.57;;
65471;SDS011;52068;50.710;14.492;2023-08-21T11:34:48;9.23;;;5.88;;
65471;SDS011;52068;50.710;14.492;2023-08-21T11:37:18;7.97;;;5.82;;
65471;SDS011;52068;50.710;14.492;2023-08-21T11:39:45;7.00;;;5.57;;
65471;SDS011;52068;50.710;14.492;2023-08-21T11:42:13;7.85;;;5.57;;
65471;SDS011;52068;50.710;14.492;2023-08-21T11:44:40;6.22;;;5.35;;
65471;SDS011;52068;50.710;14.492;2023-08-21T11:47:10;6.82;;;5.20;;
65471;SDS011;52068;50.710;14.492;2023-08-21T11:49:36;7.15;;;5.60;;
65471;SDS011;52068;50.710;14.492;2023-08-21T11:52:02;7.43;;;5.88;;
65471;SDS011;52068;50.710;14.492;2023-08-21T11:54:32;7.53;;;5.43;;
65471;SDS011;52068;50.710;14.492;2023-08-21T11:59:30;9.07;;;5.15;;
65471;SDS011;52068;50.710;14.492;2023-08-21T12:01:56;8.10;;;5.05;;
65471;SDS011;52068;50.710;14.492;2023-08-21T12:04:21;5.20;;;4.70;;
65471;SDS011;52068;50.710;14.492;2023-08-21T12:06:47;5.82;;;5.15;;
65471;SDS011;52068;50.710;14.492;2023-08-21T12:09:12;6.70;;;5.03;;
65471;SDS011;52068;50.710;14.492;2023-08-21T12:11:37;6.55;;;5.38;;
65471;SDS011;52068;50.710;14.492;2023-08-21T12:14:03;5.90;;;5.28;;
65471;SDS011;52068;50.710;14.492;2023-08-21T12:16:33;6.20;;;5.30;;
65471;SDS011;52068;50.710;14.492;2023-08-21T12:18:58;6.97;;;4.70;;
65471;SDS011;52068;50.710;14.492;2023-08-21T12:21:24;6.45;;;4.90;;
65471;SDS011;52068;50.710;14.492;2023-08-21T12:23:50;5.28;;;4.78;;
65471;SDS011;52068;50.710;14.492;2023-08-21T12:26:15;5.55;;;4.60;;
65471;SDS011;52068;50.710;14.492;2023-08-21T12:28:45;5.82;;;5.03;;
65471;SDS011;52068;50.710;14.492;2023-08-21T12:31:11;5.32;;;4.78;;
65471;SDS011;52068;50.710;14.492;2023-08-21T12:33:37;7.78;;;5.57;;
65471;SDS011;52068;50.710;14.492;2023-08-21T12:36:02;5.35;;;4.85;;
65471;SDS011;52068;50.710;14.492;2023-08-21T12:38:28;6.30;;;4.75;;
65471;SDS011;52068;50.710;14.492;2023-08-21T12:40:54;5.10;;;4.60;;
65471;SDS011;52068;50.710;14.492;2023-08-21T12:43:19;5.70;;;5.20;;
65471;SDS011;52068;50.710;14.492;2023-08-21T12:45:45;5.65;;;4.45;;
65471;SDS011;52068;50.710;14.492;2023-08-21T12:48:11;6.40;;;4.80;;
65471;SDS011;52068;50.710;14.492;2023-08-21T12:50:36;5.30;;;4.80;;
65471;SDS011;52068;50.710;14.492;2023-08-21T12:53:02;5.15;;;4.65;;
65471;SDS011;52068;50.710;14.492;2023-08-21T12:55:28;5.10;;;4.60;;
65471;SDS011;52068;50.710;14.492;2023-08-21T12:57:54;5.18;;;4.25;;
65471;SDS011;52068;50.710;14.492;2023-08-21T13:00:20;7.20;;;4.40;;
65471;SDS011;52068;50.710;14.492;2023-08-21T13:02:46;8.07;;;4.68;;
65471;SDS011;52068;50.710;14.492;2023-08-21T13:05:11;4.93;;;4.07;;
65471;SDS011;52068;50.710;14.492;2023-08-21T13:07:36;4.90;;;4.40;;
65471;SDS011;52068;50.710;14.492;2023-08-21T13:10:02;5.63;;;4.13;;
65471;SDS011;52068;50.710;14.492;2023-08-21T13:12:27;5.97;;;4.63;;
65471;SDS011;52068;50.710;14.492;2023-08-21T13:14:53;6.00;;;4.03;;
65471;SDS011;52068;50.710;14.492;2023-08-21T13:17:19;4.78;;;4.10;;
65471;SDS011;52068;50.710;14.492;2023-08-21T13:19:44;6.68;;;4.40;;
65471;SDS011;52068;50.710;14.492;2023-08-21T13:22:10;4.75;;;4.25;;
65471;SDS011;52068;50.710;14.492;2023-08-21T13:24:35;5.53;;;4.15;;
65471;SDS011;52068;50.710;14.492;2023-08-21T13:27:00;5.05;;;4.60;;
65471;SDS011;52068;50.710;14.492;2023-08-21T13:29:26;6.32;;;4.32;;
65471;SDS011;52068;50.710;14.492;2023-08-21T13:31:51;4.82;;;4.18;;
65471;SDS011;52068;50.710;14.492;2023-08-21T13:34:17;4.82;;;3.92;;
65471;SDS011;52068;50.710;14.492;2023-08-21T13:36:42;4.63;;;3.95;;
65471;SDS011;52068;50.710;14.492;2023-08-21T13:39:08;5.22;;;4.20;;
65471;SDS011;52068;50.710;14.492;2023-08-21T13:41:36;4.55;;;4.00;;
65471;SDS011;52068;50.710;14.492;2023-08-21T13:44:01;4.70;;;4.07;;
65471;SDS011;52068;50.710;14.492;2023-08-21T13:46:28;5.22;;;3.97;;
65471;SDS011;52068;50.710;14.492;2023-08-21T13:48:53;5.10;;;3.80;;
65471;SDS011;52068;50.710;14.492;2023-08-21T13:51:19;5.47;;;4.22;;
65471;SDS011;52068;50.710;14.492;2023-08-21T13:53:44;4.78;;;3.70;;
65471;SDS011;52068;50.710;14.492;2023-08-21T13:56:10;5.03;;;4.20;;
65471;SDS011;52068;50.710;14.492;2023-08-21T13:58:35;6.10;;;4.07;;
65471;SDS011;52068;50.710;14.492;2023-08-21T14:01:00;6.80;;;3.80;;
65471;SDS011;52068;50.710;14.492;2023-08-21T14:03:26;4.35;;;3.95;;
65471;SDS011;52068;50.710;14.492;2023-08-21T14:05:51;5.70;;;3.53;;
65471;SDS011;52068;50.710;14.492;2023-08-21T14:08:17;4.57;;;3.85;;
65471;SDS011;52068;50.710;14.492;2023-08-21T14:10:43;3.70;;;3.40;;
65471;SDS011;52068;50.710;14.492;2023-08-21T14:13:09;4.65;;;4.10;;
65471;SDS011;52068;50.710;14.492;2023-08-21T14:15:34;4.05;;;3.70;;
65471;SDS011;52068;50.710;14.492;2023-08-21T14:18:00;7.38;;;4.10;;
65471;SDS011;52068;50.710;14.492;2023-08-21T14:20:25;5.03;;;3.75;;
65471;SDS011;52068;50.710;14.492;2023-08-21T14:22:50;4.13;;;3.50;;
65471;SDS011;52068;50.710;14.492;2023-08-21T14:25:16;5.47;;;3.70;;
65471;SDS011;52068;50.710;14.492;2023-08-21T14:27:42;4.15;;;3.58;;
65471;SDS011;52068;50.710;14.492;2023-08-21T14:30:08;5.38;;;3.67;;
65471;SDS011;52068;50.710;14.492;2023-08-21T14:32:33;4.03;;;3.15;;
65471;SDS011;52068;50.710;14.492;2023-08-21T14:34:59;4.13;;;3.72;;
65471;SDS011;52068;50.710;14.492;2023-08-21T14:37:24;4.05;;;3.47;;
65471;SDS011;52068;50.710;14.492;2023-08-21T14:39:50;4.13;;;3.13;;